createdAt,value
2023-04-23T00:01:22.402Z,6.27
2023-04-23T00:03:51.403Z,8.30
2023-04-23T00:06:20.362Z,6.00
2023-04-23T00:08:50.273Z,7.73
2023-04-23T00:11:19.152Z,8.03
2023-04-23T00:13:49.499Z,8.97
2023-04-23T00:16:18.098Z,8.17
2023-04-23T00:18:46.372Z,8.27
2023-04-23T00:21:15.389Z,8.10
2023-04-23T00:23:43.530Z,8.63
2023-04-23T00:26:13.280Z,9.53
2023-04-23T00:28:44.655Z,8.90
2023-04-23T00:31:15.820Z,9.47
2023-04-23T00:33:44.045Z,8.53
2023-04-23T00:36:12.671Z,9.37
2023-04-23T00:38:41.952Z,8.70
2023-04-23T00:41:11.276Z,10.13
2023-04-23T00:43:43.222Z,11.00
2023-04-23T00:46:12.250Z,10.80
2023-04-23T00:48:42.213Z,11.23
2023-04-23T00:51:12.730Z,10.30
2023-04-23T00:53:41.210Z,11.27
2023-04-23T00:56:09.936Z,10.53
2023-04-23T00:58:38.840Z,11.20
2023-04-23T01:01:09.881Z,11.80
2023-04-23T01:03:44.311Z,12.77
2023-04-23T01:06:12.402Z,12.60
2023-04-23T01:08:40.850Z,10.90
2023-04-23T01:11:12.742Z,13.50
2023-04-23T01:13:40.904Z,13.17
2023-04-23T01:16:10.994Z,13.20
2023-04-23T01:18:41.227Z,14.00
2023-04-23T01:21:10.733Z,13.30
2023-04-23T01:23:40.834Z,13.80
2023-04-23T01:26:11.027Z,14.70
2023-04-23T01:28:39.499Z,14.53
2023-04-23T01:31:08.207Z,15.00
2023-04-23T01:33:37.243Z,15.00
2023-04-23T01:36:06.374Z,16.00
2023-04-23T01:38:34.927Z,15.57
2023-04-23T01:41:04.590Z,15.37
2023-04-23T01:43:33.444Z,17.23
2023-04-23T01:46:01.746Z,14.13
2023-04-23T01:48:29.869Z,15.17
2023-04-23T01:50:58.143Z,14.63
2023-04-23T01:53:26.150Z,14.40
2023-04-23T01:55:56.139Z,15.17
2023-04-23T01:58:26.339Z,14.43
2023-04-23T02:00:55.060Z,13.67
2023-04-23T02:03:23.243Z,14.40
2023-04-23T02:05:52.316Z,14.13
2023-04-23T02:08:20.696Z,15.17
2023-04-23T02:28:24.585Z,29.80
2023-04-23T02:30:54.023Z,29.43
2023-04-23T02:33:22.102Z,28.30
2023-04-23T02:35:50.516Z,29.87
2023-04-23T02:38:19.080Z,27.83
2023-04-23T02:40:47.071Z,30.47
2023-04-23T02:43:15.050Z,33.30
2023-04-23T02:45:43.033Z,33.70
2023-04-23T02:48:12.484Z,34.13
2023-04-23T02:50:41.085Z,33.30
2023-04-23T02:53:09.245Z,32.73
2023-04-23T02:55:37.187Z,34.00
2023-04-23T02:58:05.269Z,33.87
2023-04-23T03:00:36.336Z,34.10
2023-04-23T03:03:04.541Z,32.50
2023-04-23T03:05:33.956Z,32.43
2023-04-23T03:08:01.777Z,30.10
2023-04-23T03:10:30.089Z,28.20
2023-04-23T03:12:58.690Z,29.00
2023-04-23T03:15:27.297Z,29.60
2023-04-23T03:17:55.412Z,29.23
2023-04-23T03:20:23.588Z,26.47
2023-04-23T03:22:53.052Z,29.20
2023-04-23T03:25:23.849Z,26.73
2023-04-23T03:27:52.063Z,26.33
2023-04-23T03:30:20.525Z,25.77
2023-04-23T03:32:48.336Z,26.03
2023-04-23T03:35:16.736Z,25.70
2023-04-23T03:37:47.687Z,26.97
2023-04-23T03:40:17.320Z,27.37
2023-04-23T03:42:48.602Z,26.93
2023-04-23T03:45:19.537Z,26.20
2023-04-23T03:47:47.460Z,26.10
2023-04-23T03:50:15.496Z,27.20
2023-04-23T03:52:45.461Z,25.87
2023-04-23T03:55:22.772Z,24.60
2023-04-23T03:57:50.802Z,26.20
2023-04-23T04:00:24.636Z,22.77
2023-04-23T04:02:52.510Z,25.20
2023-04-23T04:05:22.033Z,23.50
2023-04-23T04:07:49.771Z,23.03
2023-04-23T04:10:18.345Z,24.33
2023-04-23T04:12:48.092Z,23.93
2023-04-23T04:15:16.789Z,23.83
2023-04-23T04:17:46.001Z,23.27
2023-04-23T04:20:13.999Z,22.33
2023-04-23T04:22:41.826Z,22.57
2023-04-23T04:25:09.988Z,20.57
2023-04-23T04:27:37.775Z,19.90
2023-04-23T04:30:08.292Z,18.60
2023-04-23T04:32:38.637Z,17.57
2023-04-23T04:35:07.079Z,15.43
2023-04-23T04:37:34.752Z,16.20
2023-04-23T04:40:02.468Z,15.37
2023-04-23T04:42:30.325Z,14.77
2023-04-23T04:44:59.474Z,16.20
2023-04-23T04:47:29.145Z,13.37
2023-04-23T04:49:57.796Z,13.80
2023-04-23T04:52:25.659Z,12.80
2023-04-23T04:54:53.342Z,13.87
2023-04-23T04:57:22.854Z,12.30
2023-04-23T04:59:51.096Z,11.77
2023-04-23T05:02:20.035Z,12.53
2023-04-23T05:04:49.213Z,13.33
2023-04-23T05:07:16.891Z,13.17
2023-04-23T05:09:45.307Z,11.50
2023-04-23T05:12:13.132Z,12.60
2023-04-23T05:14:41.034Z,12.37
2023-04-23T05:17:08.953Z,12.30
2023-04-23T05:19:36.713Z,12.30
2023-04-23T05:22:05.872Z,12.93
2023-04-23T05:24:33.780Z,12.63
2023-04-23T05:27:01.640Z,11.93
2023-04-23T05:29:29.370Z,11.40
2023-04-23T05:31:57.092Z,11.23
2023-04-23T05:34:24.874Z,10.90
2023-04-23T05:36:52.576Z,9.23
2023-04-23T05:39:21.555Z,9.60
2023-04-23T05:41:49.241Z,9.80
2023-04-23T05:44:17.011Z,7.90
2023-04-23T05:46:44.738Z,8.33
2023-04-23T05:49:12.538Z,8.17
2023-04-23T05:51:40.471Z,8.13
2023-04-23T05:54:08.302Z,7.50
2023-04-23T05:56:38.418Z,7.40
2023-04-23T05:59:06.176Z,7.63
2023-04-23T06:01:33.914Z,7.30
2023-04-23T06:04:01.872Z,7.87
2023-04-23T06:06:29.827Z,8.20
2023-04-23T06:08:57.758Z,8.47
2023-04-23T06:11:25.526Z,8.50
2023-04-23T06:13:56.494Z,8.10
2023-04-23T06:16:24.830Z,8.43
2023-04-23T06:18:52.536Z,9.57
2023-04-23T06:21:20.239Z,8.50
2023-04-23T06:23:48.105Z,8.67
2023-04-23T06:26:15.915Z,8.00
2023-04-23T06:28:46.246Z,8.73
2023-04-23T06:31:31.781Z,7.07
2023-04-23T06:33:59.640Z,7.27
2023-04-23T06:36:27.382Z,7.27
2023-04-23T06:38:55.058Z,7.10
2023-04-23T06:41:22.848Z,7.13
2023-04-23T06:44:02.250Z,6.93
2023-04-23T06:46:38.248Z,6.60
2023-04-23T06:49:06.044Z,6.77
2023-04-23T06:51:33.815Z,6.03
2023-04-23T06:54:01.572Z,5.27
2023-04-23T06:56:29.336Z,6.53
2023-04-23T06:58:57.081Z,6.00
2023-04-23T07:01:24.785Z,5.90
2023-04-23T07:03:54.580Z,6.20
2023-04-23T07:06:22.697Z,6.30
2023-04-23T07:08:50.394Z,6.10
2023-04-23T07:11:18.120Z,5.57
2023-04-23T07:13:46.278Z,5.67
2023-04-23T07:16:14.048Z,5.57
2023-04-23T07:18:41.804Z,5.50
2023-04-23T07:21:10.968Z,5.97
2023-04-23T07:23:38.645Z,6.50
2023-04-23T07:26:06.394Z,5.50
2023-04-23T07:28:34.088Z,6.30
2023-04-23T07:31:03.346Z,6.70
2023-04-23T07:33:31.273Z,6.90
2023-04-23T07:35:59.043Z,6.60
2023-04-23T07:38:28.140Z,7.10
2023-04-23T07:40:56.153Z,8.57
2023-04-23T07:43:23.992Z,6.80
2023-04-23T07:45:51.778Z,7.67
2023-04-23T07:48:19.473Z,6.57
2023-04-23T07:50:47.277Z,6.73
2023-04-23T07:53:15.261Z,6.73
2023-04-23T07:55:44.489Z,6.50
2023-04-23T07:58:12.143Z,7.40
2023-04-23T08:00:39.793Z,6.50
2023-04-23T08:03:07.760Z,6.53
2023-04-23T08:05:37.236Z,6.13
2023-04-23T08:08:05.021Z,6.27
2023-04-23T08:10:33.319Z,7.33
2023-04-23T08:13:03.059Z,6.00
2023-04-23T08:15:30.970Z,6.40
2023-04-23T08:17:58.992Z,6.13
2023-04-23T08:20:27.102Z,7.83
2023-04-23T08:22:55.728Z,7.10
2023-04-23T08:25:23.586Z,7.43
2023-04-23T08:27:51.373Z,8.00
2023-04-23T08:30:20.666Z,7.20
2023-04-23T08:32:51.051Z,7.50
2023-04-23T08:35:19.191Z,7.60
2023-04-23T08:37:47.320Z,7.07
2023-04-23T08:40:15.474Z,7.80
2023-04-23T08:42:44.631Z,8.30
2023-04-23T08:45:13.300Z,7.27
2023-04-23T08:47:43.879Z,8.10
2023-04-23T08:50:13.555Z,7.40
2023-04-23T08:52:42.959Z,8.10
2023-04-23T08:55:11.701Z,8.67
2023-04-23T08:57:41.175Z,9.20
2023-04-23T09:00:11.004Z,9.80
2023-04-23T09:02:39.289Z,8.57
2023-04-23T09:05:09.572Z,8.67
2023-04-23T09:07:38.130Z,8.60
2023-04-23T09:10:07.527Z,7.37
2023-04-23T09:12:37.303Z,7.30
2023-04-23T09:15:10.432Z,7.90
2023-04-23T09:17:41.062Z,7.03
2023-04-23T09:20:11.308Z,7.60
2023-04-23T09:22:40.705Z,6.13
2023-04-23T09:25:09.914Z,6.50
2023-04-23T09:27:37.961Z,6.63
2023-04-23T09:30:07.796Z,6.37
2023-04-23T09:32:36.759Z,6.30
2023-04-23T09:35:07.968Z,7.20
2023-04-23T09:37:37.520Z,6.20
2023-04-23T09:40:09.292Z,7.20
2023-04-23T09:42:37.779Z,6.70
2023-04-23T09:45:07.408Z,7.10
2023-04-23T09:47:35.957Z,7.97
2023-04-23T09:50:04.055Z,7.33
2023-04-23T09:52:32.402Z,6.80
2023-04-23T09:55:03.016Z,7.70
2023-04-23T09:57:30.822Z,6.97
2023-04-23T10:00:11.088Z,7.23
2023-04-23T10:02:47.860Z,7.33
2023-04-23T10:05:24.170Z,8.20
2023-04-23T10:07:52.398Z,8.80
2023-04-23T10:10:21.893Z,7.80
2023-04-23T10:15:20.937Z,8.90
2023-04-23T10:17:49.613Z,7.47
2023-04-23T10:20:17.626Z,7.47
2023-04-23T10:22:46.655Z,6.70
2023-04-23T10:25:14.505Z,7.30
2023-04-23T10:27:53.874Z,7.70
2023-04-23T10:30:23.164Z,7.10
2023-04-23T10:32:51.413Z,6.73
2023-04-23T10:35:19.338Z,6.70
2023-04-23T10:37:48.901Z,6.90
2023-04-23T10:40:21.850Z,8.40
2023-04-23T10:42:51.650Z,7.70
2023-04-23T10:45:24.924Z,8.67
2023-04-23T10:47:56.585Z,9.20
2023-04-23T10:50:26.216Z,8.53
2023-04-23T10:52:54.704Z,9.40
2023-04-23T10:55:23.878Z,8.73
2023-04-23T10:58:02.960Z,10.50
2023-04-23T11:00:43.859Z,10.00
2023-04-23T11:03:32.347Z,9.00
2023-04-23T11:06:03.287Z,10.27
2023-04-23T11:08:33.046Z,8.40
2023-04-23T11:11:02.341Z,10.00
2023-04-23T11:13:31.488Z,9.30
2023-04-23T11:16:18.810Z,9.50
2023-04-23T11:18:57.462Z,8.20
2023-04-23T11:22:02.040Z,9.70
2023-04-23T11:24:31.428Z,9.33
2023-04-23T11:26:59.375Z,9.50
2023-04-23T11:29:29.042Z,11.10
2023-04-23T11:32:03.049Z,9.50
2023-04-23T11:34:32.077Z,9.90
2023-04-23T11:37:00.788Z,9.90
2023-04-23T11:39:28.568Z,10.63
2023-04-23T11:41:59.421Z,10.70
2023-04-23T11:44:28.688Z,10.63
2023-04-23T11:46:58.364Z,9.53
2023-04-23T11:49:26.184Z,9.87
2023-04-23T11:51:54.072Z,10.40
2023-04-23T11:54:27.448Z,10.30
2023-04-23T11:56:55.863Z,9.80
2023-04-23T11:59:24.292Z,8.70
2023-04-23T12:01:55.296Z,9.90
2023-04-23T12:04:24.410Z,10.70
2023-04-23T12:06:53.999Z,9.43
2023-04-23T12:09:23.379Z,8.73
2023-04-23T12:11:52.105Z,10.60
2023-04-23T12:14:24.003Z,8.10
2023-04-23T12:16:53.154Z,9.30
2023-04-23T12:19:21.941Z,9.00
2023-04-23T12:21:57.092Z,8.90
2023-04-23T12:24:26.442Z,9.30
2023-04-23T12:26:55.988Z,8.17
2023-04-23T12:29:25.288Z,7.53
2023-04-23T12:31:54.868Z,6.20
2023-04-23T12:34:22.781Z,6.60
2023-04-23T12:36:57.403Z,7.53
2023-04-23T12:39:30.447Z,6.97
2023-04-23T12:42:00.204Z,7.53
2023-04-23T12:44:27.946Z,7.20
2023-04-23T12:46:58.886Z,6.20
2023-04-23T12:49:27.799Z,5.37
2023-04-23T12:51:57.652Z,6.60
2023-04-23T12:54:26.591Z,5.90
2023-04-23T12:56:54.344Z,5.93
2023-04-23T12:59:22.293Z,5.77
2023-04-23T13:01:51.132Z,5.83
2023-04-23T13:04:21.098Z,5.50
2023-04-23T13:06:49.498Z,5.10
2023-04-23T13:09:17.160Z,5.57
2023-04-23T13:11:46.244Z,3.90
2023-04-23T13:14:13.849Z,5.10
2023-04-23T13:16:42.272Z,5.23
2023-04-23T13:19:10.146Z,4.77
2023-04-23T13:21:39.261Z,5.17
2023-04-23T13:24:07.004Z,4.87
2023-04-23T13:26:34.735Z,5.00
2023-04-23T13:29:03.194Z,4.47
2023-04-23T13:31:31.456Z,4.57
2023-04-23T13:33:59.646Z,4.70
2023-04-23T13:36:27.354Z,4.87
2023-04-23T13:38:56.398Z,4.70
2023-04-23T13:41:24.106Z,3.63
2023-04-23T13:43:52.578Z,5.50
2023-04-23T13:46:20.644Z,3.77
2023-04-23T13:48:48.418Z,3.93
2023-04-23T13:51:33.181Z,3.30
2023-04-23T13:54:03.797Z,4.90
2023-04-23T13:56:31.988Z,3.87
2023-04-23T13:59:15.491Z,3.20
2023-04-23T14:01:47.119Z,3.40
2023-04-23T14:04:15.057Z,4.07
2023-04-23T14:06:43.086Z,3.97
2023-04-23T14:09:12.604Z,2.83
2023-04-23T14:11:41.605Z,2.63
2023-04-23T14:14:09.408Z,3.70
2023-04-23T14:16:37.662Z,3.17
2023-04-23T14:19:05.279Z,3.17
2023-04-23T14:21:33.726Z,2.90
2023-04-23T14:24:03.467Z,2.90
2023-04-23T14:26:48.167Z,3.03
2023-04-23T14:29:20.785Z,2.83
2023-04-23T14:31:48.480Z,3.30
2023-04-23T14:34:16.340Z,2.77
2023-04-23T14:36:44.589Z,3.20
2023-04-23T14:39:12.232Z,2.90
2023-04-23T14:41:51.628Z,4.10
2023-04-23T14:44:20.323Z,5.07
2023-04-23T14:46:49.919Z,5.70
2023-04-23T14:49:17.832Z,5.00
2023-04-23T14:51:45.643Z,4.50
2023-04-23T14:54:13.442Z,3.60
2023-04-23T14:56:42.076Z,3.33
2023-04-23T14:59:11.086Z,4.17
2023-04-23T15:01:39.041Z,4.63
2023-04-23T15:04:06.807Z,4.40
2023-04-23T15:06:34.602Z,4.57
2023-04-23T15:09:02.474Z,4.43
2023-04-23T15:11:30.563Z,3.80
2023-04-23T15:14:03.613Z,3.63
2023-04-23T15:19:06.309Z,2.27
2023-04-23T15:21:34.124Z,1.97
2023-04-23T15:24:02.076Z,2.33
2023-04-23T15:26:30.217Z,2.10
2023-04-23T15:28:57.856Z,2.23
2023-04-23T15:31:25.806Z,2.63
2023-04-23T15:33:54.838Z,2.40
2023-04-23T15:36:22.487Z,2.07
2023-04-23T15:38:50.246Z,2.00
2023-04-23T15:41:18.029Z,1.73
2023-04-23T15:43:46.500Z,1.80
2023-04-23T15:46:14.394Z,1.73
2023-04-23T15:48:42.252Z,2.03
2023-04-23T15:51:11.830Z,1.80
2023-04-23T15:53:39.926Z,1.83
2023-04-23T15:56:07.597Z,2.20
2023-04-23T15:58:35.310Z,2.20
2023-04-23T16:01:03.538Z,2.47
2023-04-23T16:03:31.509Z,2.07
2023-04-23T16:05:59.224Z,1.97
2023-04-23T16:08:28.165Z,2.03
2023-04-23T16:10:57.050Z,1.77
2023-04-23T16:13:26.675Z,1.90
2023-04-23T16:15:54.404Z,2.00
2023-04-23T16:18:22.089Z,2.43
2023-04-23T16:20:49.840Z,2.80
2023-04-23T16:23:17.462Z,2.10
2023-04-23T16:25:46.464Z,2.73
2023-04-23T16:28:14.383Z,1.63
2023-04-23T16:30:42.452Z,2.33
2023-04-23T16:33:10.484Z,2.57
2023-04-23T16:35:38.390Z,2.83
2023-04-23T16:38:06.214Z,3.30
2023-04-23T16:40:34.676Z,3.80
2023-04-23T16:43:03.833Z,3.77
2023-04-23T16:45:31.894Z,3.80
2023-04-23T16:47:59.744Z,4.27
2023-04-23T16:50:28.134Z,4.70
2023-04-23T16:52:56.699Z,4.40
2023-04-23T16:55:24.604Z,4.50
2023-04-23T16:57:52.564Z,4.60
2023-04-23T17:00:21.864Z,4.33
2023-04-23T17:02:49.901Z,4.07
2023-04-23T17:05:19.769Z,4.37
2023-04-23T17:07:47.637Z,5.20
2023-04-23T17:10:17.241Z,5.70
2023-04-23T17:12:45.559Z,4.83
2023-04-23T17:15:13.488Z,5.70
2023-04-23T17:17:42.781Z,5.80
2023-04-23T17:20:11.204Z,6.93
2023-04-23T17:22:39.336Z,6.40
2023-04-23T17:25:08.435Z,6.97
2023-04-23T17:27:36.606Z,7.30
2023-04-23T17:30:05.785Z,8.03
2023-04-23T17:32:34.712Z,7.90
2023-04-23T17:35:10.154Z,7.70
2023-04-23T17:37:40.012Z,7.37
2023-04-23T17:40:10.847Z,5.80
2023-04-23T17:42:39.137Z,5.50
2023-04-23T17:45:08.378Z,5.80
2023-04-23T17:47:37.648Z,9.00
2023-04-23T17:50:11.779Z,8.70
2023-04-23T17:52:41.261Z,7.43
2023-04-23T17:55:10.044Z,7.60
2023-04-23T17:57:38.465Z,8.00
2023-04-23T18:00:09.760Z,7.73
2023-04-23T18:02:41.529Z,6.93
2023-04-23T18:05:12.774Z,7.13
2023-04-23T18:07:41.782Z,8.70
2023-04-23T18:10:12.184Z,8.50
2023-04-23T18:12:40.693Z,8.57
2023-04-23T18:15:12.659Z,8.30
2023-04-23T18:17:41.356Z,9.17
2023-04-23T18:20:12.830Z,8.90
2023-04-23T18:22:41.825Z,9.03
2023-04-23T18:25:11.556Z,8.40
2023-04-23T18:27:39.587Z,8.97
2023-04-23T18:30:08.977Z,7.73
2023-04-23T18:32:40.964Z,7.83
2023-04-23T18:35:12.111Z,6.83
2023-04-23T18:37:48.667Z,7.53
2023-04-23T18:40:16.517Z,8.37
2023-04-23T18:42:44.678Z,8.00
2023-04-23T18:45:12.886Z,8.87
2023-04-23T18:47:45.342Z,7.90
2023-04-23T18:50:31.441Z,8.70
2023-04-23T18:52:59.214Z,8.00
2023-04-23T18:55:27.043Z,9.17
2023-04-23T18:57:56.081Z,9.33
2023-04-23T19:00:24.001Z,8.67
2023-04-23T19:02:52.311Z,10.00
2023-04-23T19:05:20.849Z,8.77
2023-04-23T19:07:50.574Z,9.97
2023-04-23T19:10:18.599Z,9.33
2023-04-23T19:12:46.768Z,8.80
2023-04-23T19:15:15.788Z,8.63
2023-04-23T19:17:43.702Z,9.80
2023-04-23T19:20:15.039Z,9.27
2023-04-23T19:22:43.660Z,9.47
2023-04-23T19:25:13.106Z,8.70
2023-04-23T19:27:41.304Z,9.77
2023-04-23T19:30:10.428Z,9.60
2023-04-23T19:32:38.484Z,9.13
2023-04-23T19:35:06.994Z,7.50
2023-04-23T19:37:36.102Z,8.47
2023-04-23T19:40:04.952Z,8.37
2023-04-23T19:42:34.451Z,8.27
2023-04-23T19:45:02.492Z,8.17
2023-04-23T19:47:32.563Z,8.27
2023-04-23T19:50:00.594Z,7.67
2023-04-23T19:52:28.837Z,6.80
2023-04-23T19:54:56.735Z,8.07
2023-04-23T19:57:24.548Z,7.20
2023-04-23T19:59:53.777Z,7.73
2023-04-23T20:02:21.747Z,7.80
2023-04-23T20:04:49.461Z,7.83
2023-04-23T20:07:17.474Z,9.70
2023-04-23T20:09:45.489Z,8.80
2023-04-23T20:12:14.102Z,7.23
2023-04-23T20:14:42.682Z,7.37
2023-04-23T20:17:12.193Z,7.13
2023-04-23T20:19:40.776Z,7.00
2023-04-23T20:22:09.199Z,7.03
2023-04-23T20:24:40.337Z,8.00
2023-04-23T20:27:08.209Z,7.60
2023-04-23T20:29:37.058Z,8.27
2023-04-23T20:32:05.106Z,6.90
2023-04-23T20:34:34.494Z,7.50
2023-04-23T20:37:02.983Z,6.03
2023-04-23T20:39:30.680Z,6.03
2023-04-23T20:42:00.884Z,6.80
2023-04-23T20:44:28.927Z,7.00
2023-04-23T20:46:58.092Z,6.60
2023-04-23T20:49:26.238Z,6.50
2023-04-23T20:51:55.822Z,7.57
2023-04-23T20:54:23.929Z,7.03
2023-04-23T20:56:54.210Z,6.97
2023-04-23T20:59:22.590Z,6.43
2023-04-23T21:01:51.019Z,6.30
2023-04-23T21:04:19.412Z,6.90
2023-04-23T21:06:48.188Z,6.30
2023-04-23T21:09:17.698Z,7.57
2023-04-23T21:11:46.246Z,7.60
2023-04-23T21:14:13.938Z,7.83
2023-04-23T21:16:42.655Z,7.00
2023-04-23T21:19:10.820Z,6.50
2023-04-23T21:21:38.963Z,7.67
2023-04-23T21:24:07.407Z,7.10
2023-04-23T21:26:36.997Z,7.50
2023-04-23T21:29:05.212Z,7.87
2023-04-23T21:31:40.636Z,6.90
2023-04-23T21:34:10.243Z,6.87
2023-04-23T21:36:38.452Z,6.40
2023-04-23T21:39:06.575Z,7.37
2023-04-23T21:41:36.338Z,7.43
2023-04-23T21:44:04.330Z,6.37
2023-04-23T21:46:32.621Z,6.53
2023-04-23T21:49:00.574Z,7.00
2023-04-23T21:51:30.138Z,7.00
2023-04-23T21:53:57.987Z,6.37
2023-04-23T21:56:26.255Z,7.20
2023-04-23T21:58:55.908Z,6.10
2023-04-23T22:01:24.578Z,6.63
2023-04-23T22:03:52.736Z,6.50
2023-04-23T22:06:21.312Z,6.47
2023-04-23T22:08:49.789Z,6.30
2023-04-23T22:11:19.548Z,7.43
2023-04-23T22:13:47.605Z,6.03
2023-04-23T22:16:27.502Z,5.80
2023-04-23T22:18:57.620Z,6.00
2023-04-23T22:21:25.791Z,6.10
2023-04-23T22:23:54.018Z,7.47
2023-04-23T22:26:22.301Z,5.50
2023-04-23T22:28:50.419Z,6.10
2023-04-23T22:31:19.741Z,6.50
2023-04-23T22:33:47.987Z,6.20
2023-04-23T22:36:16.972Z,6.47
2023-04-23T22:38:45.063Z,5.80
2023-04-23T22:41:13.123Z,5.70
2023-04-23T22:43:41.237Z,6.10
2023-04-23T22:46:09.240Z,6.17
2023-04-23T22:48:45.057Z,6.30
2023-04-23T22:51:14.405Z,5.57
2023-04-23T22:53:42.533Z,5.77
2023-04-23T22:56:10.550Z,6.13
2023-04-23T22:58:38.891Z,6.23
2023-04-23T23:01:07.206Z,5.70
2023-04-23T23:03:35.640Z,5.33
2023-04-23T23:06:05.926Z,5.83
2023-04-23T23:08:34.417Z,5.93
2023-04-23T23:11:02.666Z,5.87
2023-04-23T23:13:31.194Z,6.20
2023-04-23T23:16:02.582Z,6.70
2023-04-23T23:18:30.695Z,6.60
2023-04-23T23:20:58.470Z,6.10
2023-04-23T23:23:28.073Z,7.13
2023-04-23T23:25:57.668Z,7.00
2023-04-23T23:28:26.633Z,6.50
2023-04-23T23:30:55.493Z,6.50
2023-04-23T23:33:23.393Z,6.20
2023-04-23T23:35:51.236Z,6.70
2023-04-23T23:38:18.924Z,5.30
2023-04-23T23:40:48.323Z,5.60
2023-04-23T23:43:16.266Z,5.80
2023-04-23T23:45:44.121Z,6.23
2023-04-23T23:48:12.055Z,6.27
2023-04-23T23:50:39.932Z,5.70
2023-04-23T23:53:07.925Z,6.20
2023-04-23T23:55:37.723Z,6.10
2023-04-23T23:58:07.187Z,6.20
